createdAt,value
2022-08-25T00:00:10.901Z,6.35
2022-08-25T00:02:37.811Z,8.23
2022-08-25T00:05:05.259Z,11.35
2022-08-25T00:07:33.554Z,8.18
2022-08-25T00:10:00.337Z,7.32
2022-08-25T00:12:26.954Z,8.27
2022-08-25T00:14:55.073Z,8.82
2022-08-25T00:17:21.673Z,10.82
2022-08-25T00:19:53.153Z,8.55
2022-08-25T00:22:19.813Z,9.02
2022-08-25T00:24:46.370Z,9.88
2022-08-25T00:27:14.791Z,9.73
2022-08-25T00:29:41.406Z,7.55
2022-08-25T00:32:08.056Z,8.88
2022-08-25T00:34:38.258Z,7.10
2022-08-25T00:37:07.521Z,9.82
2022-08-25T00:39:34.169Z,10.55
2022-08-25T00:42:03.090Z,9.02
2022-08-25T00:44:31.688Z,9.63
2022-08-25T00:47:01.213Z,8.55
2022-08-25T00:49:56.349Z,8.82
2022-08-25T00:52:33.851Z,9.15
2022-08-25T00:55:08.270Z,11.10
2022-08-25T00:57:48.964Z,12.57
2022-08-25T01:00:28.993Z,9.07
2022-08-25T01:02:56.725Z,9.95
2022-08-25T01:05:24.713Z,12.82
2022-08-25T01:07:52.599Z,11.02
2022-08-25T01:10:27.175Z,10.45
2022-08-25T01:12:59.250Z,10.27
2022-08-25T01:15:27.049Z,9.93
2022-08-25T01:17:57.219Z,10.07
2022-08-25T01:20:29.791Z,9.02
2022-08-25T01:22:59.420Z,8.07
2022-08-25T01:25:57.133Z,10.07
2022-08-25T01:28:38.228Z,9.65
2022-08-25T01:31:05.427Z,10.50
2022-08-25T01:33:51.140Z,12.05
2022-08-25T01:36:19.175Z,11.32
2022-08-25T01:38:45.829Z,16.35
2022-08-25T01:41:12.543Z,11.25
2022-08-25T01:43:39.498Z,11.93
2022-08-25T01:46:06.137Z,13.63
2022-08-25T01:48:33.130Z,12.02
2022-08-25T01:50:59.771Z,14.88
2022-08-25T01:53:33.182Z,12.85
2022-08-25T01:56:12.734Z,12.15
2022-08-25T01:58:43.509Z,13.55
2022-08-25T02:01:15.843Z,12.65
2022-08-25T02:03:45.130Z,14.88
2022-08-25T02:06:15.126Z,13.77
2022-08-25T02:09:09.600Z,13.38
2022-08-25T02:11:38.446Z,11.80
2022-08-25T02:14:05.951Z,11.60
2022-08-25T02:16:37.412Z,13.02
2022-08-25T02:19:07.422Z,14.35
2022-08-25T02:21:35.334Z,14.68
2022-08-25T02:24:06.319Z,13.95
2022-08-25T02:26:33.078Z,18.25
2022-08-25T02:29:05.652Z,13.55
2022-08-25T02:31:32.277Z,14.20
2022-08-25T02:33:58.898Z,17.27
2022-08-25T02:36:26.077Z,14.85
2022-08-25T02:38:52.804Z,15.75
2022-08-25T02:41:23.755Z,15.85
2022-08-25T02:43:59.452Z,14.75
2022-08-25T02:46:55.134Z,20.48
2022-08-25T02:49:21.766Z,17.67
2022-08-25T02:51:48.472Z,16.85
2022-08-25T02:54:16.098Z,16.42
2022-08-25T02:56:43.042Z,17.50
2022-08-25T02:59:11.012Z,17.42
2022-08-25T03:01:37.752Z,17.67
2022-08-25T03:04:04.539Z,16.75
2022-08-25T03:06:31.182Z,18.88
2022-08-25T03:08:58.329Z,19.48
2022-08-25T03:11:26.421Z,19.98
2022-08-25T03:13:53.861Z,18.30
2022-08-25T03:16:21.010Z,19.58
2022-08-25T03:18:48.453Z,15.32
2022-08-25T03:21:17.598Z,19.27
2022-08-25T03:23:45.347Z,19.27
2022-08-25T03:26:30.873Z,20.55
2022-08-25T03:28:57.921Z,22.17
2022-08-25T03:31:26.732Z,23.73
2022-08-25T03:33:54.347Z,22.55
2022-08-25T03:36:20.925Z,23.08
2022-08-25T03:38:47.553Z,19.05
2022-08-25T03:41:23.642Z,20.15
2022-08-25T03:43:54.501Z,24.83
2022-08-25T03:46:23.826Z,19.83
2022-08-25T03:48:51.866Z,21.20
2022-08-25T03:51:31.766Z,24.55
2022-08-25T03:54:00.009Z,22.15
2022-08-25T03:56:29.767Z,26.80
2022-08-25T03:58:57.035Z,20.52
2022-08-25T04:01:24.255Z,18.73
2022-08-25T04:03:55.710Z,22.73
2022-08-25T04:06:26.074Z,20.77
2022-08-25T04:08:54.476Z,21.35
2022-08-25T04:11:25.673Z,22.00
2022-08-25T04:13:56.001Z,22.50
2022-08-25T04:16:25.967Z,24.30
2022-08-25T04:18:54.802Z,22.17
2022-08-25T04:21:22.682Z,19.65
2022-08-25T04:23:51.914Z,23.67
2022-08-25T04:26:21.506Z,25.90
2022-08-25T04:28:49.418Z,20.83
2022-08-25T04:31:17.579Z,21.30
2022-08-25T04:33:44.299Z,24.15
2022-08-25T04:36:14.243Z,23.50
2022-08-25T04:38:42.666Z,26.13
2022-08-25T04:41:11.804Z,27.73
2022-08-25T04:43:40.194Z,25.45
2022-08-25T04:46:12.301Z,26.95
2022-08-25T04:48:42.769Z,27.60
2022-08-25T04:51:13.775Z,25.95
2022-08-25T04:53:41.218Z,21.88
2022-08-25T04:56:10.615Z,29.52
2022-08-25T04:58:38.526Z,23.73
2022-08-25T05:01:15.749Z,25.60
2022-08-25T05:03:43.648Z,38.33
2022-08-25T05:06:15.687Z,33.50
2022-08-25T05:08:45.936Z,25.60
2022-08-25T05:11:14.784Z,23.65
2022-08-25T05:13:51.375Z,22.67
2022-08-25T05:16:19.831Z,23.33
2022-08-25T05:18:46.929Z,29.42
2022-08-25T05:21:16.268Z,25.25
2022-08-25T05:23:46.462Z,28.17
2022-08-25T05:26:20.257Z,26.27
2022-08-25T05:28:49.761Z,24.70
2022-08-25T05:31:17.428Z,25.83
2022-08-25T05:33:44.377Z,30.08
2022-08-25T05:36:13.101Z,26.00
2022-08-25T05:38:40.948Z,28.27
2022-08-25T05:41:10.789Z,29.60
2022-08-25T05:43:40.053Z,28.30
2022-08-25T05:46:08.414Z,30.02
2022-08-25T05:48:36.372Z,32.42
2022-08-25T05:51:05.560Z,30.33
2022-08-25T05:53:33.701Z,33.42
2022-08-25T05:56:01.690Z,31.05
2022-08-25T05:58:29.319Z,27.90
2022-08-25T06:00:56.951Z,31.15
2022-08-25T06:03:23.650Z,26.10
2022-08-25T06:05:50.293Z,29.65
2022-08-25T06:08:16.949Z,33.17
2022-08-25T06:10:51.525Z,31.30
2022-08-25T06:13:18.192Z,27.92
2022-08-25T06:16:00.916Z,32.33
2022-08-25T06:18:27.701Z,29.35
2022-08-25T06:20:54.630Z,29.30
2022-08-25T06:23:21.571Z,26.23
2022-08-25T06:25:53.898Z,25.55
2022-08-25T06:28:20.919Z,27.52
2022-08-25T06:30:48.174Z,30.90
2022-08-25T06:33:15.543Z,28.33
2022-08-25T06:35:44.357Z,28.60
2022-08-25T06:38:11.501Z,26.63
2022-08-25T06:40:38.466Z,24.75
2022-08-25T06:43:08.754Z,29.33
2022-08-25T06:45:35.739Z,26.45
2022-08-25T06:48:29.166Z,22.48
2022-08-25T06:50:55.762Z,23.42
2022-08-25T06:53:22.322Z,23.52
2022-08-25T06:56:06.395Z,23.77
2022-08-25T06:58:33.823Z,21.48
2022-08-25T07:01:26.710Z,22.52
2022-08-25T07:03:58.083Z,20.17
2022-08-25T07:06:25.500Z,23.55
2022-08-25T07:08:52.085Z,21.23
2022-08-25T07:11:21.321Z,24.30
2022-08-25T07:13:49.443Z,23.80
2022-08-25T07:16:17.949Z,23.83
2022-08-25T07:18:45.029Z,25.17
2022-08-25T07:21:13.304Z,18.55
2022-08-25T07:23:41.534Z,20.08
2022-08-25T07:26:36.910Z,20.33
2022-08-25T07:29:09.402Z,22.58
2022-08-25T07:31:36.114Z,14.77
2022-08-25T07:34:22.864Z,19.35
2022-08-25T07:36:49.546Z,16.83
2022-08-25T07:39:17.482Z,19.67
2022-08-25T07:41:48.784Z,18.05
2022-08-25T07:44:21.292Z,17.27
2022-08-25T07:46:51.126Z,19.30
2022-08-25T07:49:23.636Z,17.77
2022-08-25T07:52:05.732Z,20.47
2022-08-25T07:54:37.843Z,17.17
2022-08-25T07:57:06.529Z,15.80
2022-08-25T07:59:34.776Z,15.70
2022-08-25T08:02:18.050Z,13.82
2022-08-25T08:04:50.185Z,14.38
2022-08-25T08:07:19.217Z,17.05
2022-08-25T08:09:46.582Z,15.95
2022-08-25T08:12:15.191Z,15.00
2022-08-25T08:14:44.908Z,15.02
2022-08-25T08:17:11.937Z,14.18
2022-08-25T08:19:44.941Z,14.35
2022-08-25T08:22:15.611Z,12.13
2022-08-25T08:24:56.052Z,12.40
2022-08-25T08:27:23.467Z,12.63
2022-08-25T08:29:53.837Z,12.90
2022-08-25T08:32:20.901Z,13.80
2022-08-25T08:34:52.648Z,13.30
2022-08-25T08:37:21.260Z,15.27
2022-08-25T08:39:51.192Z,15.18
2022-08-25T08:42:56.408Z,12.52
2022-08-25T08:45:44.037Z,13.95
2022-08-25T08:48:32.889Z,14.68
2022-08-25T08:51:14.996Z,14.13
2022-08-25T08:53:46.197Z,17.17
2022-08-25T08:56:17.753Z,16.58
2022-08-25T08:58:50.547Z,12.90
2022-08-25T09:01:25.647Z,14.38
2022-08-25T09:04:08.411Z,12.55
2022-08-25T09:06:43.928Z,15.10
2022-08-25T09:09:14.936Z,16.65
2022-08-25T09:12:08.585Z,15.45
2022-08-25T09:14:53.667Z,14.52
2022-08-25T09:17:54.301Z,12.90
2022-08-25T09:20:27.822Z,13.63
2022-08-25T09:23:12.817Z,15.00
2022-08-25T09:25:57.260Z,14.75
2022-08-25T09:28:42.709Z,12.95
2022-08-25T09:31:29.147Z,12.48
2022-08-25T09:34:01.539Z,12.38
2022-08-25T09:36:33.212Z,11.93
2022-08-25T09:39:05.096Z,10.80
2022-08-25T09:41:47.642Z,11.07
2022-08-25T09:44:22.566Z,10.00
2022-08-25T09:47:01.917Z,12.10
2022-08-25T09:49:49.064Z,12.23
2022-08-25T09:52:35.763Z,11.63
2022-08-25T09:55:04.950Z,13.02
2022-08-25T09:57:48.310Z,10.95
2022-08-25T10:00:26.571Z,10.45
2022-08-25T10:03:22.514Z,10.63
2022-08-25T10:05:56.630Z,13.15
2022-08-25T10:08:46.906Z,9.23
2022-08-25T10:11:30.414Z,10.57
2022-08-25T10:14:07.521Z,11.45
2022-08-25T10:16:36.134Z,12.75
2022-08-25T10:19:21.814Z,10.88
2022-08-25T10:22:20.483Z,13.15
2022-08-25T10:24:47.228Z,10.23
2022-08-25T10:27:43.381Z,11.23
2022-08-25T10:30:20.063Z,11.80
2022-08-25T10:33:15.312Z,12.73
2022-08-25T10:36:04.597Z,9.13
2022-08-25T10:38:57.627Z,12.18
2022-08-25T10:41:36.047Z,13.82
2022-08-25T10:44:37.508Z,11.52
2022-08-25T10:47:43.357Z,12.15
2022-08-25T10:50:23.528Z,13.32
2022-08-25T10:53:02.325Z,10.93
2022-08-25T10:55:44.490Z,12.07
2022-08-25T10:58:24.359Z,11.55
2022-08-25T11:01:05.801Z,12.32
2022-08-25T11:03:49.214Z,10.65
2022-08-25T11:09:05.383Z,9.23
2022-08-25T11:11:52.362Z,12.52
2022-08-25T11:14:34.858Z,14.05
2022-08-25T11:17:21.681Z,10.35
2022-08-25T11:19:52.814Z,11.30
2022-08-25T11:22:40.582Z,13.80
2022-08-25T11:25:16.255Z,13.45
2022-08-25T11:27:59.375Z,14.85
2022-08-25T11:30:26.895Z,13.43
2022-08-25T11:32:55.485Z,11.90
2022-08-25T11:35:35.580Z,12.32
2022-08-25T11:38:19.694Z,23.10
2022-08-25T11:40:55.769Z,10.75
2022-08-25T11:44:10.744Z,12.48
2022-08-25T11:46:45.537Z,11.20
2022-08-25T11:49:51.161Z,10.27
2022-08-25T11:52:34.687Z,11.73
2022-08-25T11:55:11.296Z,10.75
2022-08-25T11:57:41.960Z,9.77
2022-08-25T12:00:14.046Z,11.90
2022-08-25T12:02:42.722Z,10.50
2022-08-25T12:05:12.794Z,12.85
2022-08-25T12:08:21.192Z,14.25
2022-08-25T12:11:09.940Z,11.73
2022-08-25T12:13:47.534Z,12.40
2022-08-25T12:16:40.524Z,10.57
2022-08-25T12:19:25.521Z,12.23
2022-08-25T12:21:55.446Z,11.20
2022-08-25T12:24:41.896Z,9.50
2022-08-25T12:27:22.148Z,15.07
2022-08-25T12:29:53.073Z,14.13
2022-08-25T12:32:59.079Z,9.55
2022-08-25T12:35:48.937Z,10.85
2022-08-25T12:38:42.587Z,12.30
2022-08-25T12:41:24.214Z,10.50
2022-08-25T12:43:54.472Z,12.27
2022-08-25T12:46:21.199Z,10.15
2022-08-25T12:49:23.490Z,10.40
2022-08-25T12:51:59.949Z,12.02
2022-08-25T12:55:11.165Z,10.40
2022-08-25T12:57:49.883Z,8.32
2022-08-25T13:00:52.842Z,10.25
2022-08-25T13:03:49.600Z,9.10
2022-08-25T13:06:55.405Z,10.90
2022-08-25T13:09:32.612Z,10.02
2022-08-25T13:12:17.349Z,10.95
2022-08-25T13:14:52.302Z,11.68
2022-08-25T13:17:34.938Z,11.43
2022-08-25T13:20:13.487Z,11.00
2022-08-25T13:22:48.755Z,12.48
2022-08-25T13:25:18.665Z,8.57
2022-08-25T13:27:59.134Z,10.20
2022-08-25T13:30:29.888Z,9.77
2022-08-25T13:32:57.554Z,9.23
2022-08-25T13:35:32.161Z,10.27
2022-08-25T13:38:19.435Z,8.80
2022-08-25T13:40:46.386Z,12.18
2022-08-25T13:43:15.027Z,10.48
2022-08-25T13:45:47.703Z,8.73
2022-08-25T13:48:33.230Z,11.27
2022-08-25T13:51:21.526Z,9.65
2022-08-25T13:53:54.595Z,10.70
2022-08-25T13:56:25.574Z,11.05
2022-08-25T13:58:53.059Z,9.95
2022-08-25T14:01:48.038Z,10.32
2022-08-25T14:04:32.740Z,10.77
2022-08-25T14:07:21.269Z,13.10
2022-08-25T14:09:59.290Z,12.52
2022-08-25T14:12:48.051Z,11.20
2022-08-25T14:15:16.395Z,11.70
2022-08-25T14:18:15.991Z,11.10
2022-08-25T14:20:47.286Z,9.65
2022-08-25T14:23:18.942Z,11.07
2022-08-25T14:25:47.206Z,12.18
2022-08-25T14:28:22.366Z,10.88
2022-08-25T14:30:53.837Z,11.98
2022-08-25T14:33:25.086Z,9.43
2022-08-25T14:35:54.932Z,10.43
2022-08-25T14:38:24.173Z,10.63
2022-08-25T14:40:51.313Z,12.98
2022-08-25T14:43:23.737Z,11.52
2022-08-25T14:45:51.853Z,9.23
2022-08-25T14:48:37.593Z,10.35
2022-08-25T14:51:05.072Z,10.25
2022-08-25T14:53:32.642Z,12.82
2022-08-25T14:56:06.937Z,9.57
2022-08-25T14:58:48.243Z,8.90
2022-08-25T15:01:28.398Z,10.55
2022-08-25T15:04:15.698Z,9.93
2022-08-25T15:06:43.743Z,9.77
2022-08-25T15:09:16.124Z,11.65
2022-08-25T15:11:46.843Z,10.65
2022-08-25T15:14:16.106Z,9.65
2022-08-25T15:16:56.885Z,10.43
2022-08-25T15:19:26.958Z,9.73
2022-08-25T15:21:54.433Z,9.25
2022-08-25T15:24:25.612Z,12.18
2022-08-25T15:26:57.137Z,9.07
2022-08-25T15:29:29.577Z,10.98
2022-08-25T15:31:58.085Z,9.68
2022-08-25T15:34:24.789Z,9.45
2022-08-25T15:36:51.811Z,11.40
2022-08-25T15:39:19.195Z,12.45
2022-08-25T15:41:49.414Z,12.10
2022-08-25T15:44:16.474Z,9.52
2022-08-25T15:46:47.113Z,9.30
2022-08-25T15:49:20.847Z,9.35
2022-08-25T15:51:53.133Z,8.52
2022-08-25T15:54:26.649Z,8.10
2022-08-25T15:56:54.292Z,11.13
2022-08-25T15:59:22.163Z,9.23
2022-08-25T16:01:53.339Z,11.73
2022-08-25T16:04:22.210Z,9.35
2022-08-25T16:06:50.562Z,9.32
2022-08-25T16:09:22.913Z,11.07
2022-08-25T16:14:27.534Z,9.57
2022-08-25T16:16:58.471Z,7.93
2022-08-25T16:19:28.645Z,9.90
2022-08-25T16:22:00.633Z,11.40
2022-08-25T16:24:27.540Z,9.05
2022-08-25T16:26:55.924Z,7.88
2022-08-25T16:29:23.766Z,9.38
2022-08-25T16:31:54.909Z,11.45
2022-08-25T16:34:24.673Z,7.55
2022-08-25T16:36:52.621Z,11.95
2022-08-25T16:39:20.714Z,7.78
2022-08-25T16:41:47.958Z,8.85
2022-08-25T16:44:15.931Z,9.73
2022-08-25T16:46:44.158Z,9.20
2022-08-25T16:49:13.759Z,10.27
2022-08-25T16:51:43.063Z,11.02
2022-08-25T16:54:29.364Z,12.23
2022-08-25T16:56:57.611Z,11.40
2022-08-25T16:59:25.583Z,10.23
2022-08-25T17:01:55.573Z,12.63
2022-08-25T17:04:32.151Z,9.30
2022-08-25T17:06:59.661Z,11.40
2022-08-25T17:09:29.413Z,10.95
2022-08-25T17:11:57.140Z,11.32
2022-08-25T17:14:24.262Z,7.55
2022-08-25T17:16:54.598Z,10.75
2022-08-25T17:19:22.243Z,10.60
2022-08-25T17:21:50.900Z,9.02
2022-08-25T17:24:18.123Z,9.60
2022-08-25T17:26:49.956Z,9.32
2022-08-25T17:29:18.339Z,8.45
2022-08-25T17:31:46.195Z,11.45
2022-08-25T17:34:16.579Z,12.65
2022-08-25T17:36:43.899Z,11.50
2022-08-25T17:39:13.454Z,7.97
2022-08-25T17:41:41.934Z,10.50
2022-08-25T17:44:08.563Z,11.07
2022-08-25T17:46:37.027Z,12.52
2022-08-25T17:49:04.222Z,12.55
2022-08-25T17:51:32.045Z,11.18
2022-08-25T17:53:59.159Z,8.88
2022-08-25T17:56:27.715Z,12.25
2022-08-25T17:58:56.102Z,9.93
2022-08-25T18:01:29.556Z,9.70
2022-08-25T18:03:57.449Z,10.32
2022-08-25T18:06:25.735Z,9.40
2022-08-25T18:08:57.545Z,12.90
2022-08-25T18:11:26.114Z,9.98
2022-08-25T18:13:53.677Z,9.43
2022-08-25T18:16:21.407Z,7.85
2022-08-25T18:18:48.666Z,8.23
2022-08-25T18:21:18.086Z,11.95
2022-08-25T18:23:45.693Z,8.50
2022-08-25T18:26:14.353Z,10.32
2022-08-25T18:28:43.979Z,9.65
2022-08-25T18:31:13.222Z,10.85
2022-08-25T18:33:42.474Z,13.45
2022-08-25T18:36:10.401Z,11.23
2022-08-25T18:38:57.882Z,7.53
2022-08-25T18:41:26.809Z,10.98
2022-08-25T18:43:53.706Z,9.02
2022-08-25T18:46:22.771Z,10.93
2022-08-25T18:48:52.969Z,13.05
2022-08-25T18:51:22.976Z,9.18
2022-08-25T18:53:54.603Z,11.88
2022-08-25T18:56:28.881Z,10.65
2022-08-25T18:58:56.592Z,11.73
2022-08-25T19:01:25.627Z,9.52
2022-08-25T19:03:52.334Z,10.95
2022-08-25T19:06:20.179Z,9.68
2022-08-25T19:08:51.696Z,13.38
2022-08-25T19:11:22.296Z,11.57
2022-08-25T19:13:50.625Z,8.75
2022-08-25T19:16:51.809Z,13.48
2022-08-25T19:19:22.657Z,11.45
2022-08-25T19:21:50.853Z,9.25
2022-08-25T19:24:17.989Z,9.73
2022-08-25T19:26:44.741Z,10.93
2022-08-25T19:29:14.637Z,11.63
2022-08-25T19:31:42.803Z,12.27
2022-08-25T19:34:13.071Z,10.40
2022-08-25T19:36:41.002Z,8.52
2022-08-25T19:39:11.247Z,11.30
2022-08-25T19:41:43.833Z,10.48
2022-08-25T19:44:12.304Z,11.17
2022-08-25T19:46:41.751Z,9.98
2022-08-25T19:49:14.755Z,13.25
2022-08-25T19:51:44.642Z,10.88
2022-08-25T19:54:20.540Z,13.32
2022-08-25T19:56:54.538Z,11.20
2022-08-25T19:59:26.792Z,9.77
2022-08-25T20:02:05.806Z,10.95
2022-08-25T20:04:33.315Z,13.13
2022-08-25T20:07:04.068Z,12.85
2022-08-25T20:09:39.545Z,13.27
2022-08-25T20:12:10.455Z,10.05
2022-08-25T20:14:41.163Z,13.77
2022-08-25T20:17:23.295Z,11.65
2022-08-25T20:22:25.388Z,12.18
2022-08-25T20:24:55.890Z,10.40
2022-08-25T20:27:28.408Z,11.20
2022-08-25T20:30:02.556Z,14.55
2022-08-25T20:32:32.280Z,8.82
2022-08-25T20:34:59.809Z,10.77
2022-08-25T20:37:26.604Z,11.27
2022-08-25T20:39:53.411Z,17.05
2022-08-25T20:42:21.860Z,10.07
2022-08-25T20:44:48.523Z,13.60
2022-08-25T20:47:15.646Z,11.88
2022-08-25T20:49:44.504Z,12.23
2022-08-25T20:52:11.948Z,12.25
2022-08-25T20:54:39.140Z,13.88
2022-08-25T20:57:08.095Z,12.02
2022-08-25T20:59:34.992Z,13.18
2022-08-25T21:02:02.217Z,12.23
2022-08-25T21:04:30.787Z,14.00
2022-08-25T21:07:00.125Z,15.60
2022-08-25T21:09:28.000Z,13.07
2022-08-25T21:11:57.098Z,11.77
2022-08-25T21:14:25.637Z,11.02
2022-08-25T21:16:53.872Z,12.40
2022-08-25T21:19:26.465Z,11.25
2022-08-25T21:22:00.017Z,11.98
2022-08-25T21:24:28.349Z,12.85
2022-08-25T21:26:59.585Z,18.58
2022-08-25T21:29:28.585Z,11.57
2022-08-25T21:31:58.643Z,13.88
2022-08-25T21:34:25.938Z,14.32
2022-08-25T21:36:58.199Z,16.13
2022-08-25T21:39:28.066Z,14.80
2022-08-25T21:41:56.410Z,12.40
2022-08-25T21:44:24.048Z,13.43
2022-08-25T21:46:54.860Z,14.93
2022-08-25T21:49:23.425Z,13.90
2022-08-25T21:52:01.050Z,13.23
2022-08-25T21:54:29.465Z,11.25
2022-08-25T21:57:00.130Z,17.77
2022-08-25T21:59:30.664Z,13.98
2022-08-25T22:02:02.519Z,16.30
2022-08-25T22:04:33.593Z,11.93
2022-08-25T22:07:00.730Z,14.75
2022-08-25T22:09:30.521Z,15.73
2022-08-25T22:11:58.713Z,12.48
2022-08-25T22:14:29.142Z,14.43
2022-08-25T22:16:56.047Z,15.52
2022-08-25T22:19:23.281Z,19.08
2022-08-25T22:21:52.370Z,12.85
2022-08-25T22:24:19.961Z,14.65
2022-08-25T22:26:49.075Z,16.17
2022-08-25T22:29:25.474Z,17.80
2022-08-25T22:32:00.132Z,14.88
2022-08-25T22:34:32.656Z,15.57
2022-08-25T22:37:03.568Z,14.63
2022-08-25T22:39:32.204Z,12.75
2022-08-25T22:42:01.454Z,15.00
2022-08-25T22:44:28.359Z,16.65
2022-08-25T22:46:55.036Z,17.95
2022-08-25T22:49:22.657Z,16.67
2022-08-25T22:51:49.287Z,13.63
2022-08-25T22:54:16.549Z,16.13
2022-08-25T22:56:43.431Z,16.60
2022-08-25T22:59:12.889Z,14.05
2022-08-25T23:01:40.844Z,15.65
2022-08-25T23:04:07.666Z,18.88
2022-08-25T23:06:38.118Z,15.55
2022-08-25T23:09:06.971Z,14.68
2022-08-25T23:11:38.589Z,15.18
2022-08-25T23:14:09.975Z,14.43
2022-08-25T23:16:42.012Z,13.40
2022-08-25T23:19:10.989Z,16.10
2022-08-25T23:22:02.685Z,13.98
2022-08-25T23:24:30.887Z,16.30
2022-08-25T23:26:59.401Z,13.20
2022-08-25T23:29:28.776Z,14.18
2022-08-25T23:31:56.178Z,18.08
2022-08-25T23:34:23.291Z,15.43
2022-08-25T23:36:50.902Z,15.55
2022-08-25T23:39:17.992Z,15.60
2022-08-25T23:41:44.827Z,13.82
2022-08-25T23:44:17.540Z,17.90
2022-08-25T23:46:47.571Z,17.98
2022-08-25T23:49:18.665Z,15.52
2022-08-25T23:51:47.690Z,18.15
2022-08-25T23:54:16.360Z,15.38
2022-08-25T23:56:44.827Z,19.45
2022-08-25T23:59:19.052Z,13.77
